Time;durP1;ratioP1;P1;durP2;ratioP2;P2;SDS_P1;SDS_P2;PMS_P1;PMS_P2;Temp;Humidity;BMP_temperature;BMP_pressure;BME280_temperature;BME280_humidity;BME280_pressure;Samples;Min_cycle;Max_cycle;Signal;HPM_P1;HPM_P2
2021/09/18 00:00:30;;;;;;;;;;;14.00;86.50;;;;;;5053143;28;20379;-64
2021/09/18 00:02:55;;;;;;;;;;;14.00;86.50;;;;;;5052726;28;19970;-65
2021/09/18 00:05:21;;;;;;;;;;;14.00;86.30;;;;;;5052675;28;19967;-64
2021/09/18 00:07:47;;;;;;;;;;;14.00;86.80;;;;;;5052504;28;19917;-65
2021/09/18 00:10:12;;;;;;;;;;;14.00;86.80;;;;;;5053122;28;19921;-65
2021/09/18 00:12:38;;;;;;;;;;;14.00;86.90;;;;;;5052448;28;20388;-63
2021/09/18 00:15:03;;;;;;;;;;;14.00;86.90;;;;;;5052504;28;19917;-64
2021/09/18 00:17:29;;;;;;;;;;;14.00;87.10;;;;;;5068146;28;19928;-65
2021/09/18 00:19:55;;;;;;;;;;;14.00;87.20;;;;;;5052385;28;19921;-64
2021/09/18 00:22:23;;;;;;;;;;;14.00;87.30;;;;;;5053012;28;19917;-65
2021/09/18 00:24:49;;;;;;;;;;;14.00;87.30;;;;;;5051909;28;19925;-66
2021/09/18 00:27:14;;;;;;;;;;;13.90;87.50;;;;;;5052877;28;19917;-65
2021/09/18 00:29:40;;;;;;;;;;;14.00;87.70;;;;;;5051591;28;19921;-65
2021/09/18 00:32:07;;;;;;;;;;;14.00;87.80;;;;;;5051873;28;21366;-65
2021/09/18 00:34:32;;;;;;;;;;;14.00;87.70;;;;;;5052187;28;19917;-65
2021/09/18 00:36:58;;;;;;;;;;;14.00;87.30;;;;;;5052787;28;19920;-64
2021/09/18 00:39:23;;;;;;;;;;;14.00;87.80;;;;;;5052325;28;19921;-65
2021/09/18 00:41:49;;;;;;;;;;;14.00;87.90;;;;;;5052056;28;19917;-65
2021/09/18 00:44:18;;;;;;;;;;;14.00;88.00;;;;;;5052346;28;19943;-64
2021/09/18 00:46:44;;;;;;;;;;;14.00;88.10;;;;;;5051756;28;19917;-64
2021/09/18 00:49:10;;;;;;;;;;;14.00;88.30;;;;;;5052383;28;20011;-63
2021/09/18 00:51:36;;;;;;;;;;;14.00;88.40;;;;;;5051711;28;19952;-65
2021/09/18 00:54:01;;;;;;;;;;;14.00;88.60;;;;;;5052187;28;19924;-65
2021/09/18 00:56:27;;;;;;;;;;;14.00;88.20;;;;;;5051941;28;19917;-64
2021/09/18 00:58:53;;;;;;;;;;;14.10;88.80;;;;;;5051817;28;20289;-63
2021/09/18 01:01:19;;;;;;;;;;;14.00;88.70;;;;;;5052327;28;19917;-64
2021/09/18 01:03:45;;;;;;;;;;;14.00;88.70;;;;;;5051659;28;19920;-64
2021/09/18 01:06:10;;;;;;;;;;;14.00;88.90;;;;;;5051370;28;20416;-65
2021/09/18 01:08:37;;;;;;;;;;;14.00;88.90;;;;;;5051370;28;20377;-63
2021/09/18 01:11:02;;;;;;;;;;;14.00;89.00;;;;;;5052018;28;19932;-64
2021/09/18 01:13:28;;;;;;;;;;;14.00;89.10;;;;;;5051497;28;19917;-65
2021/09/18 01:15:53;;;;;;;;;;;14.00;88.90;;;;;;5051559;28;19921;-64
2021/09/18 01:18:19;;;;;;;;;;;14.00;89.30;;;;;;5051398;28;20335;-64
2021/09/18 01:20:46;;;;;;;;;;;14.00;89.50;;;;;;5051809;28;19920;-65
2021/09/18 01:23:22;;;;;;;;;;;14.00;90.00;;;;;;5051654;28;20316;-64
2021/09/18 01:25:48;;;;;;;;;;;14.00;89.70;;;;;;5051113;28;19917;-65
2021/09/18 01:28:13;;;;;;;;;;;14.10;89.90;;;;;;5051687;28;20373;-65
2021/09/18 01:30:39;;;;;;;;;;;14.10;89.90;;;;;;5051395;28;19917;-65
2021/09/18 01:33:05;;;;;;;;;;;14.10;89.90;;;;;;5051682;28;19925;-65
2021/09/18 01:35:32;;;;;;;;;;;14.10;89.70;;;;;;5050670;28;19955;-64
2021/09/18 01:37:58;;;;;;;;;;;14.10;90.10;;;;;;5051585;28;19917;-65
2021/09/18 01:40:26;;;;;;;;;;;14.10;90.10;;;;;;5051201;28;19924;-65
2021/09/18 01:42:52;;;;;;;;;;;14.10;90.20;;;;;;5055093;28;20007;-65
2021/09/18 01:45:17;;;;;;;;;;;14.10;90.20;;;;;;5054908;28;20016;-65
2021/09/18 01:47:44;;;;;;;;;;;14.20;90.30;;;;;;5055748;28;20353;-65
2021/09/18 01:50:20;;;;;;;;;;;14.20;90.30;;;;;;5055235;28;19975;-64
2021/09/18 01:52:47;;;;;;;;;;;14.20;90.30;;;;;;5055188;28;19927;-64
2021/09/18 01:55:14;;;;;;;;;;;14.20;90.30;;;;;;5055235;28;20004;-65
2021/09/18 01:57:46;;;;;;;;;;;14.20;90.40;;;;;;5055391;28;19944;-64
2021/09/18 02:00:13;;;;;;;;;;;14.20;90.50;;;;;;5055805;28;19917;-65
2021/09/18 02:02:38;;;;;;;;;;;14.20;90.50;;;;;;5055014;28;19931;-65
2021/09/18 02:05:04;;;;;;;;;;;14.20;90.40;;;;;;5055162;28;19916;-65
2021/09/18 02:07:30;;;;;;;;;;;14.10;90.50;;;;;;5070354;28;19939;-65
2021/09/18 02:09:55;;;;;;;;;;;14.20;90.60;;;;;;5055515;28;19971;-65
2021/09/18 02:12:21;;;;;;;;;;;14.20;90.60;;;;;;5054946;28;19917;-63
2021/09/18 02:14:46;;;;;;;;;;;14.20;90.70;;;;;;5054922;28;19952;-65
2021/09/18 02:17:12;;;;;;;;;;;14.20;90.60;;;;;;5036770;28;19970;-64
2021/09/18 02:19:37;;;;;;;;;;;14.10;90.70;;;;;;5055384;28;20153;-64
2021/09/18 02:22:03;;;;;;;;;;;14.20;90.80;;;;;;5055104;28;19986;-65
2021/09/18 02:24:28;;;;;;;;;;;14.20;90.80;;;;;;5054288;28;19970;-65
2021/09/18 02:26:54;;;;;;;;;;;14.20;90.90;;;;;;5054845;28;19917;-65
2021/09/18 02:29:19;;;;;;;;;;;14.20;90.90;;;;;;5054462;28;19986;-65
2021/09/18 02:31:45;;;;;;;;;;;14.10;90.90;;;;;;5054780;28;20015;-64
2021/09/18 02:34:10;;;;;;;;;;;14.10;91.00;;;;;;5054373;28;20003;-65
2021/09/18 02:36:36;;;;;;;;;;;14.10;91.00;;;;;;5054619;28;19917;-65
2021/09/18 02:39:02;;;;;;;;;;;14.10;91.10;;;;;;5054720;28;19924;-65
2021/09/18 02:41:27;;;;;;;;;;;14.10;91.10;;;;;;5054337;28;19924;-64
2021/09/18 02:43:53;;;;;;;;;;;14.10;91.20;;;;;;5054593;28;19929;-64
2021/09/18 02:46:18;;;;;;;;;;;14.10;91.20;;;;;;5053810;28;19917;-65
2021/09/18 02:48:44;;;;;;;;;;;14.10;91.20;;;;;;5054496;28;19917;-65
2021/09/18 02:51:09;;;;;;;;;;;14.10;91.30;;;;;;5053753;28;19920;-65
2021/09/18 02:53:35;;;;;;;;;;;14.10;91.30;;;;;;5035545;28;19916;-64
2021/09/18 02:56:02;;;;;;;;;;;14.10;91.40;;;;;;5053582;28;20070;-65
2021/09/18 02:58:27;;;;;;;;;;;14.10;91.40;;;;;;5054535;28;19916;-65
2021/09/18 03:00:53;;;;;;;;;;;14.10;91.40;;;;;;5053826;28;19932;-64
2021/09/18 03:03:18;;;;;;;;;;;14.10;91.50;;;;;;5054266;28;19974;-65
2021/09/18 03:05:44;;;;;;;;;;;14.10;91.80;;;;;;5054182;28;19920;-65
2021/09/18 03:08:09;;;;;;;;;;;14.10;91.60;;;;;;5053818;28;19916;-65
2021/09/18 03:10:35;;;;;;;;;;;14.10;91.60;;;;;;5054223;28;19917;-65
2021/09/18 03:13:01;;;;;;;;;;;14.10;91.70;;;;;;5053678;28;20012;-64
2021/09/18 03:15:26;;;;;;;;;;;14.10;91.70;;;;;;5053624;28;19924;-65
2021/09/18 03:17:52;;;;;;;;;;;14.20;91.70;;;;;;5053515;28;19917;-65
2021/09/18 03:20:17;;;;;;;;;;;14.20;91.80;;;;;;5053747;28;19917;-65
2021/09/18 03:22:43;;;;;;;;;;;14.10;91.80;;;;;;5053337;28;20369;-64
2021/09/18 03:25:08;;;;;;;;;;;14.20;91.90;;;;;;5053619;28;19987;-64
2021/09/18 03:27:34;;;;;;;;;;;14.20;91.80;;;;;;5053910;28;19917;-64
2021/09/18 03:30:00;;;;;;;;;;;14.20;91.90;;;;;;5053543;28;19917;-65
2021/09/18 03:32:25;;;;;;;;;;;14.20;92.00;;;;;;5053726;28;19920;-65
2021/09/18 03:34:51;;;;;;;;;;;14.20;91.90;;;;;;5052823;28;19916;-66
2021/09/18 03:37:16;;;;;;;;;;;14.20;92.00;;;;;;5053597;28;19917;-63
2021/09/18 03:39:42;;;;;;;;;;;14.20;92.00;;;;;;5053209;28;19924;-64
2021/09/18 03:42:07;;;;;;;;;;;13.50;91.80;;;;;;5053858;28;19924;-65
2021/09/18 03:44:33;;;;;;;;;;;14.20;92.00;;;;;;5053030;28;20010;-65
2021/09/18 03:46:58;;;;;;;;;;;14.20;92.10;;;;;;5053009;28;19960;-65
2021/09/18 03:49:24;;;;;;;;;;;14.20;92.10;;;;;;5053393;28;19931;-65
2021/09/18 03:51:49;;;;;;;;;;;14.20;92.20;;;;;;5052950;28;19923;-64
2021/09/18 03:54:15;;;;;;;;;;;14.20;92.20;;;;;;5053447;28;19944;-65
2021/09/18 03:56:41;;;;;;;;;;;14.20;92.20;;;;;;5052590;28;19970;-65
2021/09/18 03:59:06;;;;;;;;;;;14.20;92.20;;;;;;5053233;28;19979;-65
2021/09/18 04:01:32;;;;;;;;;;;14.20;92.20;;;;;;5052838;28;19917;-65
2021/09/18 04:03:59;;;;;;;;;;;14.20;92.30;;;;;;5053128;28;20435;-65
2021/09/18 04:06:25;;;;;;;;;;;14.10;92.30;;;;;;5052074;28;19947;-63
2021/09/18 04:08:51;;;;;;;;;;;14.10;92.30;;;;;;5053116;28;19952;-65
2021/09/18 04:11:16;;;;;;;;;;;14.20;92.40;;;;;;5052942;28;19971;-65
2021/09/18 04:13:42;;;;;;;;;;;14.10;92.40;;;;;;5052464;28;20331;-65
2021/09/18 04:16:08;;;;;;;;;;;14.10;92.40;;;;;;5052533;28;20357;-65
2021/09/18 04:18:33;;;;;;;;;;;14.10;92.40;;;;;;5052520;28;20364;-65
2021/09/18 04:20:59;;;;;;;;;;;14.10;92.40;;;;;;5053002;28;19950;-65
2021/09/18 04:23:24;;;;;;;;;;;14.10;92.70;;;;;;5052547;28;19928;-64
2021/09/18 04:25:50;;;;;;;;;;;14.10;92.40;;;;;;5052385;28;19955;-65
2021/09/18 04:28:15;;;;;;;;;;;14.10;92.60;;;;;;5052142;28;19916;-64
2021/09/18 04:30:41;;;;;;;;;;;14.10;92.70;;;;;;5052812;28;19917;-65
2021/09/18 04:33:07;;;;;;;;;;;14.10;92.70;;;;;;5052552;28;19917;-64
2021/09/18 04:35:32;;;;;;;;;;;14.10;92.70;;;;;;5052269;28;19916;-64
2021/09/18 04:37:58;;;;;;;;;;;14.10;92.70;;;;;;5052429;28;19921;-65
2021/09/18 04:40:24;;;;;;;;;;;14.20;92.70;;;;;;5052130;28;19917;-65
2021/09/18 04:42:49;;;;;;;;;;;14.20;92.80;;;;;;5052294;28;19916;-64
2021/09/18 04:45:15;;;;;;;;;;;14.20;92.80;;;;;;5051811;28;19917;-64
2021/09/18 04:47:41;;;;;;;;;;;14.20;92.80;;;;;;5052416;28;19996;-66
2021/09/18 04:50:06;;;;;;;;;;;14.20;92.90;;;;;;5051766;28;19917;-65
2021/09/18 04:52:32;;;;;;;;;;;14.20;92.90;;;;;;5052384;28;19916;-65
2021/09/18 04:54:57;;;;;;;;;;;14.20;92.90;;;;;;5052062;28;19917;-65
2021/09/18 04:57:23;;;;;;;;;;;14.20;92.90;;;;;;5051762;28;20372;-65
2021/09/18 04:59:48;;;;;;;;;;;14.20;93.00;;;;;;5052687;28;19913;-65
2021/09/18 05:02:14;;;;;;;;;;;14.20;93.00;;;;;;5051953;28;20051;-65
2021/09/18 05:04:40;;;;;;;;;;;14.20;93.00;;;;;;5051670;28;19917;-65
2021/09/18 05:07:05;;;;;;;;;;;14.30;93.10;;;;;;5051445;28;19921;-65
2021/09/18 05:09:31;;;;;;;;;;;14.20;93.00;;;;;;5052099;28;19913;-65
2021/09/18 05:11:56;;;;;;;;;;;14.30;93.10;;;;;;5051327;28;19921;-65
2021/09/18 05:14:22;;;;;;;;;;;14.20;93.10;;;;;;5051654;28;19917;-64
2021/09/18 05:16:47;;;;;;;;;;;14.30;93.20;;;;;;5051305;28;20000;-64
2021/09/18 05:19:13;;;;;;;;;;;14.30;93.20;;;;;;5051417;28;20016;-65
2021/09/18 05:21:39;;;;;;;;;;;14.30;93.20;;;;;;5051784;28;19920;-65
2021/09/18 05:24:05;;;;;;;;;;;14.30;93.20;;;;;;5051302;28;19921;-65
2021/09/18 05:26:30;;;;;;;;;;;14.40;93.30;;;;;;5051398;28;20442;-64
2021/09/18 05:28:56;;;;;;;;;;;14.40;93.30;;;;;;5051247;28;20007;-66
2021/09/18 05:31:21;;;;;;;;;;;14.40;93.30;;;;;;5051812;28;19924;-64
2021/09/18 05:33:47;;;;;;;;;;;14.40;93.30;;;;;;5033511;28;20324;-65
2021/09/18 05:36:12;;;;;;;;;;;14.50;93.40;;;;;;5051631;28;19970;-65
2021/09/18 05:38:38;;;;;;;;;;;14.50;93.70;;;;;;5051606;28;19921;-65
2021/09/18 05:41:03;;;;;;;;;;;14.50;93.40;;;;;;5051249;28;19917;-65
2021/09/18 05:43:29;;;;;;;;;;;14.60;93.50;;;;;;5051481;28;19928;-65
2021/09/18 05:45:54;;;;;;;;;;;14.60;93.50;;;;;;5050878;28;19939;-65
2021/09/18 05:48:20;;;;;;;;;;;14.70;93.60;;;;;;5051478;28;19917;-66
2021/09/18 05:50:46;;;;;;;;;;;14.80;93.70;;;;;;5050637;28;19917;-65
2021/09/18 05:53:13;;;;;;;;;;;14.90;93.60;;;;;;5051694;28;20316;-65
2021/09/18 05:55:38;;;;;;;;;;;14.90;93.50;;;;;;5032755;28;20320;-64
2021/09/18 05:58:04;;;;;;;;;;;15.00;93.50;;;;;;5033720;28;19917;-66
2021/09/18 06:00:29;;;;;;;;;;;15.00;93.60;;;;;;5051348;28;19924;-66
2021/09/18 06:02:55;;;;;;;;;;;15.10;93.70;;;;;;5050908;28;20386;-65
2021/09/18 06:05:20;;;;;;;;;;;15.20;93.60;;;;;;5050924;28;20407;-65
2021/09/18 06:07:46;;;;;;;;;;;15.30;93.40;;;;;;5051166;28;20292;-65
2021/09/18 06:10:12;;;;;;;;;;;15.30;93.30;;;;;;5051385;28;20304;-66
2021/09/18 06:12:37;;;;;;;;;;;15.30;93.30;;;;;;5051049;28;20485;-65
2021/09/18 06:15:03;;;;;;;;;;;15.30;93.40;;;;;;5051140;28;20004;-65
2021/09/18 06:17:28;;;;;;;;;;;15.40;93.60;;;;;;5050800;28;20457;-65
2021/09/18 06:19:54;;;;;;;;;;;15.50;93.60;;;;;;5051462;28;20000;-64
2021/09/18 06:22:20;;;;;;;;;;;15.50;93.50;;;;;;5051285;28;19917;-64
2021/09/18 06:24:45;;;;;;;;;;;15.70;93.60;;;;;;5050598;28;19921;-65
2021/09/18 06:27:11;;;;;;;;;;;15.70;93.50;;;;;;5050988;28;19917;-65
2021/09/18 06:29:37;;;;;;;;;;;15.80;93.50;;;;;;5053414;28;19931;-65
2021/09/18 06:32:07;;;;;;;;;;;15.90;93.50;;;;;;5054858;28;19963;-65
2021/09/18 06:34:33;;;;;;;;;;;16.00;93.40;;;;;;5069603;28;19923;-65
2021/09/18 06:36:59;;;;;;;;;;;16.00;93.40;;;;;;5054633;28;19928;-65
2021/09/18 06:39:24;;;;;;;;;;;16.00;92.90;;;;;;5054054;28;19925;-65
2021/09/18 06:41:50;;;;;;;;;;;16.00;93.00;;;;;;5069756;28;19916;-64
2021/09/18 06:44:15;;;;;;;;;;;16.00;93.00;;;;;;5054014;28;19921;-65
2021/09/18 06:46:41;;;;;;;;;;;16.10;93.20;;;;;;5054198;28;19955;-65
2021/09/18 06:49:06;;;;;;;;;;;16.40;93.70;;;;;;5054400;28;19948;-64
2021/09/18 06:51:32;;;;;;;;;;;16.60;93.60;;;;;;5069524;28;19948;-65
2021/09/18 06:53:57;;;;;;;;;;;16.70;93.30;;;;;;5054428;28;19924;-64
2021/09/18 06:56:23;;;;;;;;;;;16.80;92.80;;;;;;5053559;28;19951;-64
2021/09/18 06:58:48;;;;;;;;;;;16.80;92.60;;;;;;5054373;28;19921;-64
2021/09/18 07:01:14;;;;;;;;;;;16.80;92.30;;;;;;5053667;28;19924;-64
2021/09/18 07:03:39;;;;;;;;;;;16.80;92.30;;;;;;5053731;28;19925;-63
2021/09/18 07:06:05;;;;;;;;;;;16.70;92.20;;;;;;5053550;28;19921;-66
2021/09/18 07:08:30;;;;;;;;;;;16.70;92.20;;;;;;5053724;28;19921;-65
2021/09/18 07:10:56;;;;;;;;;;;16.70;92.00;;;;;;5054126;28;19967;-65
2021/09/18 07:13:22;;;;;;;;;;;16.60;92.00;;;;;;5053625;28;20008;-65
2021/09/18 07:15:47;;;;;;;;;;;16.60;92.00;;;;;;5053560;28;20420;-64
2021/09/18 07:18:13;;;;;;;;;;;16.60;92.00;;;;;;5045523;28;19925;-63
2021/09/18 07:20:38;;;;;;;;;;;16.70;92.00;;;;;;5033963;28;20027;-65
2021/09/18 07:23:04;;;;;;;;;;;16.80;92.00;;;;;;5033344;28;19917;-63
2021/09/18 07:25:29;;;;;;;;;;;16.80;91.80;;;;;;5033700;28;20386;-65
2021/09/18 07:27:55;;;;;;;;;;;16.80;91.60;;;;;;5033788;28;19924;-65
2021/09/18 07:30:21;;;;;;;;;;;16.90;91.90;;;;;;5033276;28;19975;-65
2021/09/18 07:32:46;;;;;;;;;;;16.90;91.90;;;;;;5033785;28;20371;-65
2021/09/18 07:35:12;;;;;;;;;;;17.10;92.00;;;;;;5033286;28;20098;-65
2021/09/18 07:37:38;;;;;;;;;;;17.30;91.90;;;;;;5032512;28;19975;-67
2021/09/18 07:40:07;;;;;;;;;;;17.30;91.50;;;;;;5013422;28;19988;-65
2021/09/18 07:42:33;;;;;;;;;;;17.40;91.40;;;;;;5015152;28;19924;-65
2021/09/18 07:44:59;;;;;;;;;;;17.50;91.50;;;;;;5030426;28;19929;-64
2021/09/18 07:47:24;;;;;;;;;;;17.60;91.60;;;;;;5032905;28;19924;-64
2021/09/18 07:49:50;;;;;;;;;;;18.30;93.20;;;;;;5032411;28;19924;-62
2021/09/18 07:52:16;;;;;;;;;;;19.50;94.00;;;;;;5032957;28;19917;-63
2021/09/18 07:54:42;;;;;;;;;;;20.10;92.00;;;;;;5031558;28;19952;-63
2021/09/18 07:57:08;;;;;;;;;;;20.30;90.00;;;;;;5014858;28;19922;-62
2021/09/18 07:59:34;;;;;;;;;;;20.20;89.00;;;;;;5032198;28;19952;-63
2021/09/18 08:02:00;;;;;;;;;;;20.20;88.00;;;;;;5032379;28;19917;-62
2021/09/18 08:04:25;;;;;;;;;;;20.20;87.60;;;;;;5031056;28;20230;-63
2021/09/18 08:06:51;;;;;;;;;;;20.10;87.10;;;;;;5030485;28;19929;-63
2021/09/18 08:09:16;;;;;;;;;;;20.20;86.50;;;;;;5031274;28;19917;-63
2021/09/18 08:11:42;;;;;;;;;;;20.20;85.40;;;;;;5031653;28;19963;-63
2021/09/18 08:14:07;;;;;;;;;;;20.20;85.10;;;;;;5031961;28;20305;-63
2021/09/18 08:16:33;;;;;;;;;;;20.30;85.10;;;;;;5031333;28;19924;-63
2021/09/18 08:18:58;;;;;;;;;;;20.30;84.10;;;;;;5031459;28;19925;-63
2021/09/18 08:21:24;;;;;;;;;;;20.80;88.20;;;;;;5032622;28;19917;-63
2021/09/18 08:23:49;;;;;;;;;;;22.70;91.10;;;;;;5032102;28;20062;-64
2021/09/18 08:26:15;;;;;;;;;;;23.70;84.70;;;;;;5032182;28;19959;-63
2021/09/18 08:28:40;;;;;;;;;;;23.50;79.50;;;;;;5032166;28;19932;-64
2021/09/18 08:31:06;;;;;;;;;;;23.20;77.60;;;;;;5032504;28;20293;-62
2021/09/18 08:33:32;;;;;;;;;;;22.90;76.90;;;;;;5013944;28;19921;-63
2021/09/18 08:35:57;;;;;;;;;;;22.70;77.10;;;;;;5032349;28;19913;-63
2021/09/18 08:38:24;;;;;;;;;;;22.90;77.60;;;;;;5032120;28;19928;-63
2021/09/18 08:40:51;;;;;;;;;;;23.00;75.20;;;;;;5031930;28;19923;-63
2021/09/18 08:43:17;;;;;;;;;;;22.80;73.70;;;;;;5032273;28;20354;-62
2021/09/18 08:45:43;;;;;;;;;;;22.40;72.40;;;;;;5031566;28;20360;-62
2021/09/18 08:48:08;;;;;;;;;;;21.90;72.30;;;;;;5032234;28;19924;-63
2021/09/18 08:50:35;;;;;;;;;;;21.60;72.60;;;;;;5031205;28;19921;-63
2021/09/18 08:53:00;;;;;;;;;;;21.40;73.20;;;;;;5031804;28;19932;-62
2021/09/18 08:55:26;;;;;;;;;;;21.10;72.20;;;;;;5031194;28;19988;-64
2021/09/18 08:57:52;;;;;;;;;;;20.70;72.30;;;;;;5014378;28;19924;-63
2021/09/18 09:00:30;;;;;;;;;;;20.40;73.40;;;;;;5031542;28;19963;-63
2021/09/18 09:02:56;;;;;;;;;;;20.30;73.60;;;;;;5031983;28;19924;-62
2021/09/18 09:05:26;;;;;;;;;;;19.70;72.40;;;;;;5031809;28;19921;-63
2021/09/18 09:08:03;;;;;;;;;;;19.60;73.00;;;;;;5031689;28;19913;-63
2021/09/18 09:10:29;;;;;;;;;;;19.30;74.30;;;;;;5031470;28;20330;-62
2021/09/18 09:13:02;;;;;;;;;;;19.20;76.00;;;;;;5031855;28;20024;-62
2021/09/18 09:15:28;;;;;;;;;;;19.30;76.60;;;;;;5030525;28;20389;-62
2021/09/18 09:17:54;;;;;;;;;;;19.30;76.60;;;;;;5031711;28;19960;-62
2021/09/18 09:20:27;;;;;;;;;;;19.40;77.10;;;;;;5031858;28;19925;-63
2021/09/18 09:22:52;;;;;;;;;;;19.40;77.50;;;;;;5031114;28;20007;-64
2021/09/18 09:25:32;;;;;;;;;;;19.90;79.50;;;;;;5013847;28;20004;-62
2021/09/18 09:27:58;;;;;;;;;;;20.00;80.40;;;;;;5030925;28;19948;-63
2021/09/18 09:30:28;;;;;;;;;;;20.40;79.30;;;;;;5031391;28;19913;-63
2021/09/18 09:32:54;;;;;;;;;;;20.40;77.80;;;;;;5030991;28;20408;-64
2021/09/18 09:35:21;;;;;;;;;;;20.20;76.90;;;;;;5031318;28;19952;-63
2021/09/18 09:37:56;;;;;;;;;;;20.00;75.90;;;;;;5031316;28;19921;-62
2021/09/18 09:40:48;;;;;;;;;;;19.60;75.90;;;;;;5031505;28;19917;-63
2021/09/18 09:43:15;;;;;;;;;;;19.20;76.60;;;;;;5008920;28;19928;-62
2021/09/18 09:45:41;;;;;;;;;;;19.40;78.80;;;;;;5013402;28;19913;-62
2021/09/18 09:48:14;;;;;;;;;;;19.80;81.70;;;;;;5031163;28;20008;-62
2021/09/18 09:50:41;;;;;;;;;;;20.70;83.20;;;;;;5031258;28;19923;-63
2021/09/18 09:53:22;;;;;;;;;;;21.30;79.00;;;;;;5031031;28;20000;-62
2021/09/18 09:55:48;;;;;;;;;;;21.30;77.70;;;;;;5030933;28;19925;-63
2021/09/18 09:58:13;;;;;;;;;;;21.10;75.80;;;;;;5031076;28;19939;-62
2021/09/18 10:00:46;;;;;;;;;;;20.90;75.30;;;;;;5031337;28;19921;-62
2021/09/18 10:03:11;;;;;;;;;;;20.70;75.50;;;;;;5032965;28;19921;-63
2021/09/18 10:05:37;;;;;;;;;;;20.70;76.50;;;;;;5034867;28;19931;-63
2021/09/18 10:08:03;;;;;;;;;;;20.80;76.90;;;;;;5034783;28;19928;-63
2021/09/18 10:10:29;;;;;;;;;;;20.90;76.40;;;;;;5035263;28;19947;-63
2021/09/18 10:12:56;;;;;;;;;;;20.90;75.70;;;;;;5034700;28;19917;-63
2021/09/18 10:15:24;;;;;;;;;;;20.70;74.60;;;;;;5034852;28;19932;-63
2021/09/18 10:17:50;;;;;;;;;;;20.60;75.70;;;;;;5034741;28;19921;-63
2021/09/18 10:23:13;;;;;;;;;;;20.60;75.40;;;;;;5035145;28;19917;-63
2021/09/18 10:23:14;;;;;;;;;;;20.50;74.90;;;;;;5034462;28;19918;-63
2021/09/18 10:25:41;;;;;;;;;;;20.30;74.20;;;;;;5034502;28;20341;-63
2021/09/18 10:28:10;;;;;;;;;;;20.20;75.50;;;;;;5034515;28;20397;-63
2021/09/18 10:30:38;;;;;;;;;;;20.20;75.50;;;;;;5035270;28;19952;-63
2021/09/18 10:33:04;;;;;;;;;;;20.20;74.80;;;;;;5034350;28;19971;-63
2021/09/18 10:35:30;;;;;;;;;;;20.00;74.50;;;;;;5016618;28;19917;-64
2021/09/18 10:37:56;;;;;;;;;;;19.70;74.30;;;;;;5034222;28;19917;-63
2021/09/18 10:40:22;;;;;;;;;;;19.40;74.50;;;;;;5034610;28;19972;-64
2021/09/18 10:42:48;;;;;;;;;;;19.10;75.60;;;;;;5034491;28;19921;-63
2021/09/18 10:45:15;;;;;;;;;;;19.00;76.60;;;;;;5033814;28;20373;-63
2021/09/18 10:47:42;;;;;;;;;;;19.00;77.20;;;;;;5034371;28;19925;-64
2021/09/18 10:50:24;;;;;;;;;;;18.90;77.10;;;;;;5034050;28;19944;-64
2021/09/18 10:53:00;;;;;;;;;;;18.80;77.10;;;;;;5034441;28;20000;-64
2021/09/18 10:55:26;;;;;;;;;;;18.70;78.00;;;;;;5033857;28;20000;-64
2021/09/18 10:57:51;;;;;;;;;;;18.70;78.80;;;;;;5034234;28;19918;-63
2021/09/18 11:00:17;;;;;;;;;;;18.70;79.30;;;;;;5033776;28;19924;-63
2021/09/18 11:02:45;;;;;;;;;;;18.70;79.30;;;;;;5034174;28;20017;-63
2021/09/18 11:05:31;;;;;;;;;;;18.80;79.80;;;;;;5033189;28;19995;-62
2021/09/18 11:07:58;;;;;;;;;;;18.80;80.10;;;;;;5033905;28;19917;-64
2021/09/18 11:10:23;;;;;;;;;;;18.90;80.30;;;;;;5033617;28;19917;-64
2021/09/18 11:13:07;;;;;;;;;;;19.00;80.50;;;;;;5033958;28;20007;-62
2021/09/18 11:15:52;;;;;;;;;;;19.10;80.80;;;;;;5032637;28;19917;-63
2021/09/18 11:18:36;;;;;;;;;;;19.20;80.40;;;;;;5033879;28;19939;-63
2021/09/18 11:21:17;;;;;;;;;;;19.30;80.50;;;;;;5033635;28;20008;-63
2021/09/18 11:23:44;;;;;;;;;;;19.30;80.90;;;;;;5033234;28;19967;-62
2021/09/18 11:26:38;;;;;;;;;;;19.40;80.90;;;;;;5033346;28;19996;-63
2021/09/18 11:29:28;;;;;;;;;;;19.50;80.70;;;;;;5003425;28;20347;-62
2021/09/18 11:31:55;;;;;;;;;;;19.60;80.60;;;;;;5023091;28;19957;-63
2021/09/18 11:34:25;;;;;;;;;;;19.60;80.40;;;;;;5033400;28;19921;-64
2021/09/18 11:36:51;;;;;;;;;;;19.70;80.10;;;;;;5033438;28;20000;-63
2021/09/18 11:39:34;;;;;;;;;;;19.70;80.00;;;;;;5033115;28;19997;-63
2021/09/18 11:42:13;;;;;;;;;;;19.60;80.20;;;;;;5032174;28;19928;-63
2021/09/18 11:44:38;;;;;;;;;;;19.60;80.20;;;;;;5030452;28;20394;-63
2021/09/18 11:47:04;;;;;;;;;;;19.50;79.30;;;;;;5031507;28;19913;-63
2021/09/18 11:49:30;;;;;;;;;;;19.40;79.10;;;;;;5031361;28;19949;-63
2021/09/18 11:52:03;;;;;;;;;;;19.40;79.70;;;;;;5032215;28;20374;-63
2021/09/18 11:54:30;;;;;;;;;;;19.30;80.10;;;;;;5031746;28;19917;-63
2021/09/18 11:57:08;;;;;;;;;;;19.40;80.30;;;;;;5032201;28;19913;-63
2021/09/18 11:59:34;;;;;;;;;;;19.40;80.50;;;;;;5032400;28;20016;-62
2021/09/18 12:01:59;;;;;;;;;;;19.40;80.50;;;;;;5033103;28;19949;-62
2021/09/18 12:04:36;;;;;;;;;;;19.50;80.60;;;;;;5014470;28;19921;-64
2021/09/18 12:07:01;;;;;;;;;;;19.50;80.00;;;;;;5032824;28;19925;-62
2021/09/18 12:09:27;;;;;;;;;;;19.30;79.60;;;;;;5032342;28;19923;-63
2021/09/18 12:11:52;;;;;;;;;;;19.20;79.50;;;;;;5032691;28;19952;-62
2021/09/18 12:14:28;;;;;;;;;;;19.20;79.70;;;;;;5032190;28;20357;-64
2021/09/18 12:16:54;;;;;;;;;;;19.10;79.80;;;;;;5032710;28;19944;-63
2021/09/18 12:19:19;;;;;;;;;;;18.90;79.60;;;;;;5032143;28;20389;-64
2021/09/18 12:21:45;;;;;;;;;;;18.80;79.50;;;;;;5032468;28;19925;-62
2021/09/18 12:24:11;;;;;;;;;;;18.70;79.60;;;;;;5014377;28;20385;-63
2021/09/18 12:26:38;;;;;;;;;;;18.50;79.70;;;;;;5031331;28;19928;-64
2021/09/18 12:29:08;;;;;;;;;;;18.50;80.50;;;;;;5032625;28;20401;-63
2021/09/18 12:31:34;;;;;;;;;;;18.50;80.90;;;;;;5032073;28;19917;-63
2021/09/18 12:34:07;;;;;;;;;;;18.60;80.90;;;;;;5032616;28;19940;-64
2021/09/18 12:36:32;;;;;;;;;;;18.70;81.10;;;;;;5031663;28;19999;-62
2021/09/18 12:38:58;;;;;;;;;;;18.90;81.20;;;;;;5032362;28;20453;-64
2021/09/18 12:41:27;;;;;;;;;;;19.10;80.70;;;;;;5031931;28;20266;-62
2021/09/18 12:44:04;;;;;;;;;;;19.20;80.60;;;;;;5032173;28;19955;-63
2021/09/18 12:46:30;;;;;;;;;;;19.30;80.50;;;;;;5031437;28;20289;-63
2021/09/18 12:48:57;;;;;;;;;;;19.40;80.20;;;;;;5032368;28;20040;-64
2021/09/18 12:51:23;;;;;;;;;;;19.50;80.50;;;;;;5031775;28;20385;-63
2021/09/18 12:53:50;;;;;;;;;;;19.70;80.10;;;;;;5032092;28;20346;-64
2021/09/18 12:56:27;;;;;;;;;;;19.80;79.60;;;;;;5031162;28;19990;-63
2021/09/18 12:58:54;;;;;;;;;;;20.00;79.70;;;;;;5014494;28;19921;-63
2021/09/18 13:01:21;;;;;;;;;;;20.10;79.60;;;;;;5031618;28;19917;-63
2021/09/18 13:04:07;;;;;;;;;;;20.20;78.70;;;;;;5031944;28;20636;-62
2021/09/18 13:06:34;;;;;;;;;;;20.30;78.30;;;;;;5030932;28;19921;-63
2021/09/18 13:09:01;;;;;;;;;;;20.30;78.20;;;;;;5015776;28;19925;-63
2021/09/18 13:11:29;;;;;;;;;;;20.40;78.00;;;;;;5031180;28;19967;-63
2021/09/18 13:13:55;;;;;;;;;;;20.40;77.30;;;;;;5032065;28;19924;-63
2021/09/18 13:16:22;;;;;;;;;;;20.40;76.70;;;;;;5031896;28;19917;-63
2021/09/18 13:19:08;;;;;;;;;;;20.30;76.10;;;;;;5031256;28;19917;-62
2021/09/18 13:21:34;;;;;;;;;;;20.30;76.70;;;;;;5031102;28;19951;-62
2021/09/18 13:23:59;;;;;;;;;;;20.40;76.40;;;;;;5031627;28;19921;-63
2021/09/18 13:26:25;;;;;;;;;;;20.40;76.30;;;;;;5030804;28;19917;-61
2021/09/18 13:28:51;;;;;;;;;;;20.50;76.30;;;;;;5031597;28;19931;-62
2021/09/18 13:31:16;;;;;;;;;;;20.60;76.00;;;;;;5031622;28;19925;-63
2021/09/18 13:33:42;;;;;;;;;;;20.70;76.00;;;;;;5030005;28;20397;-64
2021/09/18 13:36:08;;;;;;;;;;;20.90;75.20;;;;;;5030397;28;19917;-63
2021/09/18 13:38:33;;;;;;;;;;;20.80;74.30;;;;;;5028911;28;20015;-64
2021/09/18 13:40:59;;;;;;;;;;;20.80;73.80;;;;;;5030121;28;20419;-64
2021/09/18 13:43:25;;;;;;;;;;;20.70;73.60;;;;;;5030083;28;20026;-63
2021/09/18 13:45:50;;;;;;;;;;;20.60;73.50;;;;;;5030456;28;19920;-63
2021/09/18 13:48:16;;;;;;;;;;;20.60;73.40;;;;;;5012773;28;19917;-63
2021/09/18 13:50:42;;;;;;;;;;;20.60;72.90;;;;;;5030684;28;19924;-64
2021/09/18 13:53:08;;;;;;;;;;;20.50;72.30;;;;;;5030534;28;19928;-63
2021/09/18 13:55:34;;;;;;;;;;;20.50;72.30;;;;;;5029917;28;19917;-64
2021/09/18 13:57:59;;;;;;;;;;;20.50;72.40;;;;;;5031419;28;19923;-65
2021/09/18 14:00:25;;;;;;;;;;;20.60;72.40;;;;;;5030923;28;20285;-64
2021/09/18 14:02:51;;;;;;;;;;;20.60;72.20;;;;;;5031238;28;20000;-63
2021/09/18 14:05:16;;;;;;;;;;;20.60;70.60;;;;;;5030268;28;19921;-64
2021/09/18 14:07:42;;;;;;;;;;;20.50;70.30;;;;;;5031353;28;19924;-63
2021/09/18 14:10:07;;;;;;;;;;;20.50;70.80;;;;;;5031210;28;20004;-64
2021/09/18 14:12:33;;;;;;;;;;;20.50;71.00;;;;;;5030878;28;19917;-64
2021/09/18 14:14:59;;;;;;;;;;;20.40;70.20;;;;;;5030858;28;20012;-64